Kezdőlap
METAR-TAF:

METAR-TAF

Repülőterek :

Cook Municipal Airport

Cook, Minnesota, Amerikai Egyesült Államok

földrajzi szélesség: 47-49-19N, földrajzi hosszúság: 092-41-22W, magasság: 405 m

Jelenlegi meteorológiai megfigyelések

A jelentés 15 perccel ezelõtt készült, 23:35 UTC
Déli szél 5 kt
Hőmérséklet 25°C
Páratartalom 61%
Légköri nyomás 1011 hPa
Látótávolság: 16.1 km
Derült ég

METAR: KCQM 312335Z AUTO 19005KT 10SM CLR 25/17 A2986 RMK AO2

Idő: 18:50 (23:50 UTC)


TAF: hiányzik

Meteorológiai megfigyelések és előrejelzések több, mint 4000 repülőtéren (METAR és TAF jelentéseket).

A térképen piros és sárga pontok jelzik az elérhető meteorológiai állomásokat.

Mozgassa az egeret a pont fölött, hogy megjelenjen az állomás neve.

Azután kattintson az időjárási megfigyelések és előrejelzések megtekintéséhez.

A térkép megváltoztatása: kattintson a fekete keresztel jelölt zöld gombra ráközelítéshez, a vonallal jelölt zöld gombra távolításhoz, vagy a zöld nyilakra a szomszédos térképek eléréséhez.


METAR-TAF: